Time;durP1;ratioP1;P1;durP2;ratioP2;P2;SDS_P1;SDS_P2;PMS_P1;PMS_P2;Temp;Humidity;BMP_temperature;BMP_pressure;BME280_temperature;BME280_humidity;BME280_pressure;Samples;Min_cycle;Max_cycle;Signal;HPM_P1;HPM_P2
2022/08/20 00:00:13;;;;;;;10.70;7.00;;;;;;;21.21;100.00;100734.06;5011631;28;20474;-70
2022/08/20 00:02:41;;;;;;;10.27;5.70;;;;;;;21.20;100.00;100726.94;5011320;28;20437;-70
2022/08/20 00:05:09;;;;;;;8.27;5.20;;;;;;;21.25;100.00;100734.09;5011512;28;20447;-70
2022/08/20 00:07:36;;;;;;;11.43;6.40;;;;;;;21.13;100.00;100727.63;5011444;28;20992;-70
2022/08/20 00:10:04;;;;;;;11.70;6.50;;;;;;;21.13;100.00;100735.09;5011533;28;20535;-70
2022/08/20 00:12:31;;;;;;;10.50;5.37;;;;;;;21.17;100.00;100738.72;5011284;28;20484;-70
2022/08/20 00:14:57;;;;;;;9.07;5.27;;;;;;;21.20;100.00;100739.91;5011514;28;20440;-69
2022/08/20 00:17:24;;;;;;;8.47;5.40;;;;;;;21.19;100.00;100738.31;5011174;28;20447;-70
2022/08/20 00:19:51;;;;;;;10.33;6.27;;;;;;;21.18;100.00;100732.03;5011152;28;20915;-70
2022/08/20 00:22:19;;;;;;;10.40;6.00;;;;;;;21.20;100.00;100734.41;5011291;28;20440;-70
2022/08/20 00:24:45;;;;;;;12.07;6.17;;;;;;;21.19;100.00;100738.31;5011233;28;20443;-70
2022/08/20 00:27:12;;;;;;;10.43;6.47;;;;;;;21.19;100.00;100741.88;5011151;28;20448;-72
2022/08/20 00:29:38;;;;;;;8.90;5.80;;;;;;;21.17;100.00;100739.50;5010912;28;20957;-71
2022/08/20 00:32:05;;;;;;;10.17;6.10;;;;;;;21.20;100.00;100740.69;5011034;28;20484;-72
2022/08/20 00:34:31;;;;;;;9.83;5.10;;;;;;;21.20;100.00;100739.91;5010866;28;20935;-72
2022/08/20 00:36:58;;;;;;;11.50;6.50;;;;;;;21.19;100.00;100747.38;5011145;28;20471;-71
2022/08/20 00:39:26;;;;;;;11.40;6.20;;;;;;;21.20;100.00;100746.22;5010985;28;20475;-72
2022/08/20 00:41:52;;;;;;;9.80;5.67;;;;;;;21.22;100.00;100740.34;5010673;28;20448;-72
2022/08/20 00:44:21;;;;;;;9.50;5.47;;;;;;;21.22;100.00;100738.38;5010914;28;20448;-72
2022/08/20 00:46:48;;;;;;;9.50;5.10;;;;;;;21.22;100.00;100745.88;5010974;28;20480;-71
2022/08/20 00:49:18;;;;;;;10.40;6.30;;;;;;;21.19;100.00;100741.09;5010893;28;20467;-72
2022/08/20 00:51:49;;;;;;;8.80;4.57;;;;;;;21.18;100.00;100740.28;5010527;28;20447;-72
2022/08/20 00:54:19;;;;;;;9.33;5.33;;;;;;;21.17;100.00;100739.50;5010930;28;20438;-72
2022/08/20 00:56:51;;;;;;;6.60;4.33;;;;;;;21.19;100.00;100746.59;5010426;28;20929;-71
2022/08/20 00:59:24;;;;;;;9.90;4.87;;;;;;;21.12;100.00;100742.56;5010761;28;20535;-71
2022/08/20 01:01:51;;;;;;;11.63;5.70;;;;;;;21.02;100.00;100751.44;5010796;28;20428;-72
2022/08/20 01:04:18;;;;;;;11.37;5.33;;;;;;;21.01;100.00;100751.81;5010639;28;20474;-72
2022/08/20 01:06:44;;;;;;;9.77;5.17;;;;;;;20.75;100.00;100756.06;5010633;28;20814;-72
2022/08/20 01:09:13;;;;;;;9.57;5.67;;;;;;;20.63;100.00;100750.75;5010584;28;20468;-72
2022/08/20 01:11:40;;;;;;;13.57;5.93;;;;;;;20.64;100.00;100749.59;5010320;28;20942;-71
2022/08/20 01:14:30;;;;;;;8.43;5.60;;;;;;;20.64;100.00;100755.09;5010323;28;20484;-72
2022/08/20 01:17:00;;;;;;;9.60;5.60;;;;;;;20.60;100.00;100755.03;5010511;28;20456;-71
2022/08/20 01:19:31;;;;;;;11.00;6.03;;;;;;;20.64;100.00;100760.59;5010065;28;21081;-72
2022/08/20 01:21:59;;;;;;;10.80;5.80;;;;;;;20.65;100.00;100760.22;5010489;28;20451;-72
2022/08/20 01:24:33;;;;;;;9.43;5.73;;;;;;;20.62;100.00;100766.47;5010485;28;20470;-72
2022/08/20 01:27:04;;;;;;;8.57;5.53;;;;;;;20.61;100.00;100761.31;5010584;28;20482;-75
2022/08/20 01:29:36;;;;;;;9.93;5.63;;;;;;;20.60;100.00;100763.28;5010457;28;20503;-72
2022/08/20 01:32:04;;;;;;;12.63;7.47;;;;;;;20.55;100.00;100760.84;5010102;28;20942;-71
2022/08/20 01:34:32;;;;;;;12.20;6.30;;;;;;;20.55;100.00;100765.53;5010322;28;20452;-69
2022/08/20 01:36:59;;;;;;;10.37;6.83;;;;;;;20.56;100.00;100758.88;5010371;28;20448;-69
2022/08/20 01:39:30;;;;;;;10.40;6.03;;;;;;;20.59;100.00;100758.94;5010175;28;20460;-69
2022/08/20 01:42:06;;;;;;;8.67;6.03;;;;;;;20.56;100.00;100761.63;5010330;28;20420;-69
2022/08/20 01:44:34;;;;;;;9.50;5.40;;;;;;;20.51;100.00;100761.94;5010252;28;20421;-69
2022/08/20 01:47:11;;;;;;;10.53;6.67;;;;;;;20.51;100.00;100768.22;5010184;28;20543;-69
2022/08/20 01:49:42;;;;;;;12.47;5.97;;;;;;;20.51;100.00;100762.72;5010086;28;20424;-69
2022/08/20 01:52:12;;;;;;;12.00;7.23;;;;;;;20.49;100.00;100765.03;5010094;28;20432;-69
2022/08/20 01:54:39;;;;;;;11.27;6.70;;;;;;;20.49;100.00;100764.22;5009697;28;20436;-69
2022/08/20 01:57:13;;;;;;;15.17;6.37;;;;;;;20.53;100.00;100770.59;5010074;28;20470;-69
2022/08/20 01:59:41;;;;;;;12.33;6.30;;;;;;;20.53;100.00;100770.59;5010050;28;20438;-69
2022/08/20 02:02:08;;;;;;;15.13;7.73;;;;;;;20.53;100.00;100759.59;5009907;28;20456;-69
2022/08/20 02:04:35;;;;;;;14.03;7.63;;;;;;;20.53;100.00;100770.59;5009940;28;20447;-69
2022/08/20 02:07:05;;;;;;;13.80;6.60;;;;;;;20.48;100.00;100768.16;5009653;28;20440;-69
2022/08/20 02:09:34;;;;;;;13.23;7.60;;;;;;;20.47;100.00;100769.28;5011421;28;20463;-69
2022/08/20 02:12:01;;;;;;;11.27;6.80;;;;;;;20.50;100.00;100768.59;5013103;28;20454;-69
2022/08/20 02:14:30;;;;;;;17.30;8.60;;;;;;;20.51;100.00;100772.94;5013218;28;20519;-69
2022/08/20 02:16:57;;;;;;;16.00;8.20;;;;;;;20.49;100.00;100758.72;5013228;28;20451;-69
2022/08/20 02:19:31;;;;;;;16.23;8.20;;;;;;;20.40;100.00;100770.72;5012700;28;20491;-69
2022/08/20 02:22:01;;;;;;;12.97;8.30;;;;;;;20.45;100.00;100775.13;5013180;28;20425;-69
2022/08/20 02:24:28;;;;;;;23.23;8.67;;;;;;;20.45;100.00;100768.84;5013196;28;20516;-69
2022/08/20 02:26:55;;;;;;;16.90;8.40;;;;;;;20.44;100.00;100772.75;5013060;28;20543;-69
2022/08/20 02:29:22;;;;;;;15.13;8.27;;;;;;;20.46;100.00;100775.97;5012909;28;20520;-69
2022/08/20 02:31:50;;;;;;;17.07;8.47;;;;;;;20.45;100.00;100780.63;5012871;28;20455;-69
2022/08/20 02:34:17;;;;;;;14.23;8.13;;;;;;;20.42;100.00;100771.16;5012782;28;20484;-69
2022/08/20 02:36:44;;;;;;;13.77;8.00;;;;;;;20.46;100.00;100778.72;5012819;28;20444;-69
2022/08/20 02:39:12;;;;;;;15.33;9.30;;;;;;;20.39;100.00;100771.88;5012769;28;20472;-72
2022/08/20 02:41:40;;;;;;;15.97;9.00;;;;;;;20.41;100.00;100780.59;5012821;28;20433;-72
2022/08/20 02:44:07;;;;;;;19.63;9.40;;;;;;;20.41;100.00;100777.84;5012767;28;20875;-72
2022/08/20 02:46:35;;;;;;;19.10;8.67;;;;;;;20.37;100.00;100785.22;5012666;28;20447;-72
2022/08/20 02:49:03;;;;;;;18.10;8.77;;;;;;;20.39;100.00;100782.09;5012701;28;20555;-72
2022/08/20 02:51:30;;;;;;;15.63;8.90;;;;;;;20.40;100.00;100781.72;5012664;28;20466;-72
2022/08/20 02:53:57;;;;;;;19.17;9.67;;;;;;;20.39;100.00;100788.41;5012325;28;20889;-71
2022/08/20 02:56:23;;;;;;;14.17;9.43;;;;;;;20.38;100.00;100786.81;5012565;28;20444;-71
2022/08/20 02:58:50;;;;;;;23.20;9.87;;;;;;;20.40;100.00;100792.75;5012415;28;20468;-72
2022/08/20 03:01:18;;;;;;;16.20;10.03;;;;;;;20.42;100.00;100790.44;5012537;28;20444;-72
2022/08/20 03:03:46;;;;;;;17.73;9.93;;;;;;;20.42;100.00;100786.88;5012544;28;20448;-71
2022/08/20 03:06:14;;;;;;;18.57;10.27;;;;;;;20.39;100.00;100793.09;5012332;28;20440;-72
2022/08/20 03:08:42;;;;;;;14.60;8.87;;;;;;;20.42;100.00;100787.69;5012253;28;20520;-72
2022/08/20 03:11:08;;;;;;;17.97;8.80;;;;;;;20.49;100.00;100786.25;5012234;28;20447;-72
2022/08/20 03:13:36;;;;;;;17.27;9.03;;;;;;;20.49;100.00;100789.00;5011776;28;20476;-72
2022/08/20 03:16:04;;;;;;;21.93;10.30;;;;;;;20.44;100.00;100773.56;5012151;28;20448;-72
2022/08/20 03:18:34;;;;;;;18.47;10.03;;;;;;;20.42;100.00;100768.41;5011673;28;20484;-71
2022/08/20 03:21:01;;;;;;;19.07;9.23;;;;;;;20.40;100.00;100773.47;5011904;28;20439;-71
2022/08/20 03:23:29;;;;;;;17.33;9.93;;;;;;;20.43;100.00;100777.47;5012055;28;20904;-71
2022/08/20 03:25:55;;;;;;;14.73;9.87;;;;;;;20.42;100.00;100764.88;5012033;28;20436;-71
2022/08/20 03:28:22;;;;;;;22.77;11.07;;;;;;;20.47;100.00;100763.78;5011866;28;20468;-71
2022/08/20 03:30:50;;;;;;;19.60;11.43;;;;;;;20.47;100.00;100763.78;5011769;28;20918;-71
2022/08/20 03:33:18;;;;;;;19.20;9.87;;;;;;;20.44;100.00;100759.00;5011725;28;20479;-71
2022/08/20 03:35:45;;;;;;;18.73;9.73;;;;;;;20.43;100.00;100752.69;5011621;28;20548;-71
2022/08/20 03:38:16;;;;;;;20.00;11.23;;;;;;;20.47;100.00;100755.53;5011787;28;20573;-71
2022/08/20 03:40:44;;;;;;;19.43;10.90;;;;;;;20.44;100.00;100748.00;5011895;28;20433;-71
2022/08/20 03:43:11;;;;;;;21.17;9.77;;;;;;;20.42;100.00;100753.88;5011780;28;20444;-71
2022/08/20 03:45:41;;;;;;;19.80;9.30;;;;;;;20.44;100.00;100756.25;5011742;28;20455;-71
2022/08/20 03:48:09;;;;;;;19.43;10.90;;;;;;;20.42;100.00;100749.16;5011616;28;20505;-71
2022/08/20 03:50:36;;;;;;;21.20;9.83;;;;;;;20.41;100.00;100746.78;5011739;28;20437;-72
2022/08/20 03:53:03;;;;;;;19.87;11.33;;;;;;;20.44;100.00;100757.03;5011544;28;20488;-72
2022/08/20 03:55:31;;;;;;;19.60;10.07;;;;;;;20.48;100.00;100759.91;5011267;28;20950;-72
2022/08/20 03:58:02;;;;;;;20.80;11.63;;;;;;;20.49;100.00;100755.97;5011455;28;20468;-71
2022/08/20 04:00:31;;;;;;;17.90;10.17;;;;;;;20.53;100.00;100754.09;5011696;28;20512;-71
2022/08/20 04:02:59;;;;;;;18.00;10.37;;;;;;;20.55;100.00;100760.03;5011476;28;20808;-72
2022/08/20 04:05:28;;;;;;;16.80;10.90;;;;;;;20.54;100.00;100756.50;5011377;28;20490;-71
2022/08/20 04:07:55;;;;;;;15.10;9.00;;;;;;;20.55;100.00;100766.34;5011019;28;20468;-71
2022/08/20 04:10:22;;;;;;;21.70;11.33;;;;;;;20.59;100.00;100769.16;5011381;28;20448;-72
2022/08/20 04:12:48;;;;;;;21.60;11.23;;;;;;;20.53;100.00;100770.59;5011201;28;20459;-72
2022/08/20 04:15:17;;;;;;;17.10;9.40;;;;;;;20.52;100.00;100769.81;5011244;28;20440;-73
2022/08/20 04:20:22;;;;;;;22.70;10.73;;;;;;;20.55;100.00;100771.06;5094981;22;20485;-69
2022/08/20 04:22:48;;;;;;;19.50;9.83;;;;;;;20.55;100.00;100784.81;5074025;28;20434;-69
2022/08/20 04:25:15;;;;;;;21.60;10.80;;;;;;;20.53;100.00;100785.16;5073628;28;20437;-69
2022/08/20 04:27:42;;;;;;;20.07;11.30;;;;;;;20.49;100.00;100787.03;5073515;28;21002;-69
2022/08/20 04:30:11;;;;;;;20.40;10.40;;;;;;;20.48;100.00;100790.97;5073451;28;20464;-68
2022/08/20 04:32:40;;;;;;;29.33;11.80;;;;;;;20.47;100.00;100788.56;5072754;28;20457;-68
2022/08/20 04:35:10;;;;;;;22.00;11.33;;;;;;;20.52;100.00;100796.53;5073764;28;20492;-70
2022/08/20 04:37:38;;;;;;;27.10;11.43;;;;;;;20.55;100.00;100793.06;5073753;28;20433;-68
2022/08/20 04:42:51;;;;;;;19.70;11.10;;;;;;;20.55;100.00;100790.31;5073375;28;20907;-68
2022/08/20 04:45:18;;;;;;;21.07;10.50;;;;;;;20.56;100.00;100789.94;5073333;28;20441;-68
2022/08/20 04:47:46;;;;;;;21.80;11.40;;;;;;;20.56;100.00;100789.16;5073683;28;20469;-68
2022/08/20 04:50:13;;;;;;;25.53;11.90;;;;;;;20.55;100.00;100804.09;5073440;28;20541;-67
2022/08/20 04:52:40;;;;;;;18.07;10.90;;;;;;;20.53;100.00;100801.66;5073534;28;20442;-68
2022/08/20 04:55:08;;;;;;;20.27;11.53;;;;;;;20.56;100.00;100797.41;5073451;28;20488;-68
2022/08/20 04:57:37;;;;;;;18.57;9.63;;;;;;;20.57;100.00;100794.28;5073387;28;20449;-68
2022/08/20 05:00:06;;;;;;;23.77;9.90;;;;;;;20.59;100.00;100802.19;5073378;28;20457;-67
2022/08/20 05:02:34;;;;;;;20.63;10.93;;;;;;;20.58;100.00;100797.81;5073347;28;20449;-68
2022/08/20 05:05:01;;;;;;;26.30;12.70;;;;;;;20.57;100.00;100796.25;5073374;28;20452;-68
2022/08/20 05:07:28;;;;;;;22.17;11.40;;;;;;;20.52;100.00;100797.34;5073083;28;20939;-67
2022/08/20 05:09:54;;;;;;;29.63;12.73;;;;;;;20.53;100.00;100795.38;5073288;28;20475;-66
2022/08/20 05:12:21;;;;;;;20.53;11.00;;;;;;;20.52;100.00;100797.34;5072973;28;20441;-68
2022/08/20 05:14:47;;;;;;;23.90;11.63;;;;;;;20.52;100.00;100813.06;5073090;28;20488;-68
2022/08/20 05:17:16;;;;;;;17.83;11.13;;;;;;;20.55;100.00;100806.84;5073285;28;20441;-68
2022/08/20 05:19:45;;;;;;;25.13;10.53;;;;;;;20.52;100.00;100813.84;5072840;28;20473;-68
2022/08/20 05:22:13;;;;;;;18.63;10.20;;;;;;;20.52;100.00;100813.06;5073177;28;20487;-68
2022/08/20 05:24:40;;;;;;;21.47;10.60;;;;;;;20.51;100.00;100808.72;5073436;28;20498;-68
2022/08/20 05:27:07;;;;;;;19.30;10.40;;;;;;;20.53;100.00;100818.19;5073067;28;20460;-66
2022/08/20 05:29:33;;;;;;;31.77;11.63;;;;;;;20.51;100.00;100815.00;5072996;28;20462;-67
2022/08/20 05:32:00;;;;;;;18.37;10.53;;;;;;;20.50;100.00;100821.69;5073083;28;20456;-67
2022/08/20 05:34:27;;;;;;;23.67;12.77;;;;;;;20.54;100.00;100818.97;5072624;28;20880;-66
2022/08/20 05:36:53;;;;;;;23.10;10.67;;;;;;;20.55;100.00;100820.59;5072721;28;20449;-66
2022/08/20 05:39:22;;;;;;;21.87;10.40;;;;;;;20.58;100.00;100826.16;5073007;28;20512;-66
2022/08/20 05:41:50;;;;;;;24.43;10.47;;;;;;;20.61;100.00;100819.13;5073042;28;20449;-67
2022/08/20 05:44:17;;;;;;;24.87;10.27;;;;;;;20.61;100.00;100814.41;5075826;28;20932;-67
2022/08/20 05:46:46;;;;;;;27.30;11.43;;;;;;;20.65;100.00;100818.03;5076879;28;20453;-66
2022/08/20 05:49:17;;;;;;;19.93;10.40;;;;;;;20.58;100.00;100814.34;5076436;28;20457;-66
2022/08/20 05:51:44;;;;;;;24.93;12.97;;;;;;;20.51;100.00;100819.72;5076794;28;20429;-66
2022/08/20 05:54:11;;;;;;;21.37;12.33;;;;;;;20.55;100.00;100815.09;5076677;28;20485;-66
2022/08/20 05:56:40;;;;;;;24.87;11.20;;;;;;;20.54;100.00;100810.72;5076693;28;20452;-66
2022/08/20 05:59:08;;;;;;;19.57;11.10;;;;;;;20.56;100.00;100813.91;5076260;28;20987;-66
2022/08/20 06:01:37;;;;;;;21.23;11.80;;;;;;;20.60;100.00;100820.28;5076502;28;20467;-66
2022/08/20 06:06:49;;;;;;;21.37;12.07;;;;;;;20.64;100.00;100812.91;5076243;28;20456;-66
2022/08/20 06:09:18;;;;;;;19.57;11.70;;;;;;;20.56;100.00;100820.22;5076371;28;20476;-67
2022/08/20 06:11:46;;;;;;;18.40;10.33;;;;;;;20.60;100.00;100825.81;5076376;28;20440;-67
2022/08/20 06:14:15;;;;;;;26.70;11.20;;;;;;;20.60;100.00;100829.34;5076201;28;20538;-66
2022/08/20 06:16:42;;;;;;;20.50;11.70;;;;;;;20.62;100.00;100828.97;5076263;28;20433;-67
2022/08/20 06:19:09;;;;;;;24.20;12.03;;;;;;;20.57;100.00;100837.53;5075991;28;20473;-66
2022/08/20 06:21:35;;;;;;;19.83;11.63;;;;;;;20.57;100.00;100830.06;5076180;28;20813;-66
2022/08/20 06:24:02;;;;;;;20.77;11.30;;;;;;;20.60;100.00;100839.56;5076064;28;20441;-67
2022/08/20 06:26:30;;;;;;;25.60;12.47;;;;;;;20.64;100.00;100840.44;5076085;28;20441;-66
2022/08/20 06:28:59;;;;;;;23.93;11.40;;;;;;;20.62;100.00;100853.75;5075947;28;20465;-67
2022/08/20 06:31:26;;;;;;;18.27;11.43;;;;;;;20.62;100.00;100851.00;5075991;28;20445;-67
2022/08/20 06:33:52;;;;;;;21.30;11.63;;;;;;;20.58;100.00;100852.88;5075602;28;20995;-67
2022/08/20 06:36:19;;;;;;;19.43;11.30;;;;;;;20.53;100.00;100858.69;5075884;28;20442;-66
2022/08/20 06:38:46;;;;;;;21.13;11.13;;;;;;;20.56;100.00;100852.47;5075729;28;20457;-67
2022/08/20 06:41:13;;;;;;;21.50;12.33;;;;;;;20.63;100.00;100858.91;5075740;28;20442;-67
2022/08/20 06:43:40;;;;;;;23.43;12.10;;;;;;;20.60;100.00;100854.13;5075780;28;20446;-66
2022/08/20 06:46:08;;;;;;;23.50;12.77;;;;;;;20.60;100.00;100853.31;5075738;28;20437;-66
2022/08/20 06:48:35;;;;;;;17.77;11.60;;;;;;;20.63;100.00;100858.91;5075693;28;20480;-66
2022/08/20 06:51:01;;;;;;;31.67;14.10;;;;;;;20.65;100.00;100855.78;5075582;28;20441;-67
2022/08/20 06:53:28;;;;;;;24.80;11.40;;;;;;;20.63;100.00;100858.13;5075605;28;20437;-66
2022/08/20 06:55:56;;;;;;;26.63;13.30;;;;;;;20.64;100.00;100866.00;5074870;28;20567;-68
2022/08/20 06:58:23;;;;;;;21.80;12.30;;;;;;;20.65;100.00;100864.84;5075489;28;20651;-68
2022/08/20 07:00:49;;;;;;;28.63;13.20;;;;;;;20.69;100.00;100866.88;5075197;28;20951;-68
2022/08/20 07:03:17;;;;;;;20.37;13.07;;;;;;;20.64;100.00;100863.25;5075443;28;20445;-68
2022/08/20 07:05:45;;;;;;;30.37;13.93;;;;;;;20.66;100.00;100863.66;5075389;28;20437;-67
2022/08/20 07:08:13;;;;;;;24.07;12.83;;;;;;;20.70;100.00;100865.72;5075344;28;20452;-68
2022/08/20 07:10:41;;;;;;;31.20;14.20;;;;;;;20.68;100.00;100866.09;5075017;28;20446;-68
2022/08/20 07:13:08;;;;;;;26.73;13.03;;;;;;;20.66;100.00;100868.38;5075244;28;20499;-68
2022/08/20 07:15:35;;;;;;;23.80;12.97;;;;;;;20.64;100.00;100866.00;5074891;28;21026;-68
2022/08/20 07:18:04;;;;;;;19.30;11.20;;;;;;;20.64;100.00;100874.25;5074660;28;20453;-69
2022/08/20 07:20:35;;;;;;;26.60;13.50;;;;;;;20.63;100.00;100874.63;5075148;28;20425;-68
2022/08/20 07:23:02;;;;;;;23.93;13.70;;;;;;;20.65;100.00;100877.81;5074841;28;20861;-67
2022/08/20 07:25:30;;;;;;;34.07;14.77;;;;;;;20.73;100.00;100887.81;5074830;28;20441;-67
2022/08/20 07:28:01;;;;;;;30.53;15.10;;;;;;;20.74;100.00;100889.41;5074937;28;20437;-68
2022/08/20 07:33:13;;;;;;;24.53;12.80;;;;;;;20.70;100.00;100896.00;5074666;28;20400;-68
2022/08/20 07:35:41;;;;;;;25.10;14.23;;;;;;;20.68;100.00;100901.06;5074399;28;20480;-67
2022/08/20 07:38:15;;;;;;;26.13;12.77;;;;;;;20.73;100.00;100903.53;5074775;28;20438;-67
2022/08/20 07:40:42;;;;;;;32.60;16.70;;;;;;;20.74;100.00;100903.16;5074435;28;20422;-68
2022/08/20 07:43:08;;;;;;;23.20;11.57;;;;;;;20.76;100.00;100897.28;5074675;28;20441;-67
2022/08/20 07:45:35;;;;;;;30.37;14.50;;;;;;;20.82;100.00;100902.16;5074560;28;20442;-67
2022/08/20 07:48:08;;;;;;;29.37;14.27;;;;;;;20.86;100.00;100903.03;5074504;28;20452;-68
2022/08/20 07:50:35;;;;;;;32.87;12.63;;;;;;;20.84;100.00;100905.31;5074521;28;20426;-68
2022/08/20 07:53:03;;;;;;;24.40;11.93;;;;;;;20.82;100.00;100898.59;5074508;28;20453;-68
2022/08/20 07:55:30;;;;;;;26.63;13.60;;;;;;;20.73;100.00;100901.56;5074411;28;20481;-68
2022/08/20 07:58:01;;;;;;;23.20;13.20;;;;;;;20.74;100.00;100902.38;5074285;28;20540;-68
2022/08/20 08:00:28;;;;;;;25.70;14.37;;;;;;;20.77;100.00;100901.66;5074055;28;20908;-68
2022/08/20 08:02:54;;;;;;;29.87;14.67;;;;;;;20.81;100.00;100897.03;5074612;28;20452;-67
2022/08/20 08:05:21;;;;;;;32.37;15.93;;;;;;;20.80;100.00;100903.66;5074012;28;20433;-68
2022/08/20 08:07:47;;;;;;;34.87;15.10;;;;;;;20.78;100.00;100908.75;5073298;28;20448;-67
2022/08/20 08:10:19;;;;;;;25.87;12.93;;;;;;;20.77;100.00;100907.16;5074085;28;20489;-68
2022/08/20 08:12:49;;;;;;;25.53;13.07;;;;;;;20.76;100.00;100906.38;5074102;28;20426;-68
2022/08/20 08:15:20;;;;;;;28.50;13.97;;;;;;;20.75;100.00;100913.00;5074027;28;20477;-67
2022/08/20 08:17:48;;;;;;;27.20;14.17;;;;;;;20.81;100.00;100916.28;5073942;28;20453;-67
2022/08/20 08:20:16;;;;;;;28.70;13.97;;;;;;;20.87;100.00;100918.38;5073584;28;20478;-69
2022/08/20 08:22:43;;;;;;;25.57;15.50;;;;;;;20.86;100.00;100916.78;5073900;28;20457;-67
2022/08/20 08:25:11;;;;;;;31.43;15.47;;;;;;;20.88;100.00;100919.19;5073830;28;20437;-68
2022/08/20 08:27:39;;;;;;;22.10;12.03;;;;;;;20.90;100.00;100920.41;5073760;28;20446;-68
2022/08/20 08:30:07;;;;;;;23.20;12.83;;;;;;;20.81;100.00;100917.09;5073732;28;20465;-67
2022/08/20 08:32:35;;;;;;;24.33;13.37;;;;;;;20.86;100.00;100922.31;5073824;28;20552;-68
2022/08/20 08:35:04;;;;;;;26.20;14.60;;;;;;;21.01;100.00;100928.88;5073371;28;21028;-68
2022/08/20 08:37:31;;;;;;;24.70;11.70;;;;;;;21.10;100.00;100925.91;5073612;28;20478;-71
2022/08/20 08:39:57;;;;;;;30.87;13.00;;;;;;;21.22;100.00;100916.69;5073590;28;20462;-68
2022/08/20 08:42:33;;;;;;;31.07;15.50;;;;;;;21.16;100.00;100924.44;5073543;28;20453;-68
2022/08/20 08:45:03;;;;;;;20.60;11.37;;;;;;;21.15;100.00;100925.59;5073328;28;20893;-67
2022/08/20 08:47:34;;;;;;;22.87;13.03;;;;;;;21.20;100.00;100927.25;5073562;28;20444;-68
2022/08/20 08:50:02;;;;;;;27.60;13.20;;;;;;;21.33;100.00;100929.50;5073646;28;20461;-67
2022/08/20 08:52:31;;;;;;;25.47;13.47;;;;;;;21.31;100.00;100926.34;5073630;28;20464;-67
2022/08/20 08:55:02;;;;;;;26.73;14.40;;;;;;;21.34;100.00;100931.13;5073349;28;20492;-68
2022/08/20 08:57:28;;;;;;;26.40;12.90;;;;;;;;;;5073393;28;20516;-68
2022/08/20 08:59:58;;;;;;;24.07;13.47;;;;;;;21.28;100.00;100929.78;5073060;28;20864;-68
2022/08/20 09:02:28;;;;;;;24.93;12.10;;;;;;;21.27;100.00;100925.44;5073434;28;20441;-68
2022/08/20 09:04:57;;;;;;;20.60;11.50;;;;;;;21.32;100.00;100938.16;5073346;28;20425;-68
2022/08/20 09:07:26;;;;;;;21.10;12.07;;;;;;;21.33;100.00;100935.03;5073306;28;20433;-67
2022/08/20 09:09:53;;;;;;;21.73;11.77;;;;;;;21.36;100.00;100944.53;5073186;28;20461;-68
2022/08/20 09:12:21;;;;;;;22.80;12.77;;;;;;;21.44;100.00;100946.25;5073294;28;20437;-68
2022/08/20 09:14:49;;;;;;;19.37;11.63;;;;;;;21.44;100.00;100942.72;5073136;28;20488;-68
2022/08/20 09:17:17;;;;;;;18.77;12.10;;;;;;;21.40;100.00;100946.19;5072989;28;20493;-68
2022/08/20 09:19:45;;;;;;;19.87;11.27;;;;;;;21.49;100.00;100942.41;5072662;28;21057;-68
2022/08/20 09:22:15;;;;;;;26.30;11.80;;;;;;;21.50;100.00;100946.75;5073126;28;20441;-67
2022/08/20 09:24:42;;;;;;;19.77;12.40;;;;;;;21.49;100.00;100945.16;5073161;28;20811;-68
2022/08/20 09:27:09;;;;;;;21.37;11.50;;;;;;;21.53;100.00;100959.81;5072854;28;20804;-68
2022/08/20 09:29:36;;;;;;;22.90;10.80;;;;;;;21.57;100.00;100955.94;5073051;28;20871;-67
2022/08/20 09:32:06;;;;;;;19.00;10.03;;;;;;;21.63;100.00;100942.66;5072801;28;20475;-67
2022/08/20 09:34:35;;;;;;;18.00;10.17;;;;;;;21.68;100.00;100950.63;5072742;28;20452;-69
2022/08/20 09:37:03;;;;;;;14.73;9.30;;;;;;;21.71;100.00;100955.41;5073042;28;20441;-68
2022/08/20 09:39:29;;;;;;;19.00;10.97;;;;;;;21.85;100.00;100952.88;5072543;28;20461;-68
2022/08/20 09:42:06;;;;;;;17.00;9.50;;;;;;;21.99;100.00;100954.28;5072907;28;20499;-67
2022/08/20 09:44:33;;;;;;;16.00;9.47;;;;;;;22.03;100.00;100955.94;5072705;28;20434;-69
2022/08/20 09:46:59;;;;;;;17.63;10.23;;;;;;;22.13;100.00;100949.00;5072931;28;20446;-67
2022/08/20 09:49:26;;;;;;;18.53;8.17;;;;;;;22.22;100.00;100944.03;5072467;28;20863;-67
2022/08/20 09:51:52;;;;;;;19.00;9.90;;;;;;;22.19;100.00;100950.31;5072931;28;20437;-67
2022/08/20 09:54:21;;;;;;;14.73;8.13;;;;;;;22.28;100.00;100952.81;5072759;28;20484;-67
2022/08/20 09:56:48;;;;;;;13.90;9.13;;;;;;;22.31;100.00;100947.34;5072662;28;20538;-67
2022/08/20 09:59:15;;;;;;;14.10;7.60;;;;;;;22.43;100.00;100946.31;5072643;28;20468;-67
2022/08/20 10:01:42;;;;;;;21.93;9.60;;;;;;;22.53;100.00;100942.09;5072690;28;20441;-67
2022/08/20 10:04:08;;;;;;;14.03;8.17;;;;;;;22.54;100.00;100946.47;5072621;28;20448;-66
2022/08/20 10:06:39;;;;;;;16.00;8.63;;;;;;;22.55;99.71;100942.53;5072514;28;20433;-66
2022/08/20 10:09:06;;;;;;;17.90;8.30;;;;;;;22.55;100.00;100948.84;5072567;28;20453;-67
2022/08/20 10:11:33;;;;;;;14.87;8.77;;;;;;;22.72;99.37;100941.97;5072556;28;20452;-68
2022/08/20 10:14:00;;;;;;;15.37;7.40;;;;;;;22.79;98.78;100942.06;5072675;28;20438;-67
2022/08/20 10:16:26;;;;;;;11.73;7.10;;;;;;;22.86;98.95;100941.34;5072398;28;20484;-66
2022/08/20 10:18:53;;;;;;;10.90;6.73;;;;;;;22.95;96.28;100952.16;5072119;28;20485;-67
2022/08/20 10:21:19;;;;;;;12.33;5.53;;;;;;;23.05;96.12;100948.72;5072526;28;20437;-67
2022/08/20 10:23:46;;;;;;;11.90;6.47;;;;;;;22.96;93.58;100943.47;5072512;28;20448;-68
2022/08/20 10:26:13;;;;;;;11.33;6.50;;;;;;;22.97;93.25;100947.03;5072481;28;20433;-67
2022/08/20 10:28:41;;;;;;;15.63;7.27;;;;;;;22.98;93.44;100951.41;5072243;28;20476;-67
2022/08/20 10:31:09;;;;;;;10.73;6.90;;;;;;;22.67;94.00;100956.13;5073028;28;20437;-67
2022/08/20 10:33:35;;;;;;;15.17;7.80;;;;;;;22.77;95.06;100966.50;5055945;28;20441;-68
2022/08/20 10:36:06;;;;;;;12.07;5.80;;;;;;;22.94;95.11;100958.84;5055789;28;20493;-68
2022/08/20 10:38:32;;;;;;;11.03;6.70;;;;;;;23.04;94.70;100958.19;5055706;28;20473;-69
2022/08/20 10:40:59;;;;;;;15.03;6.23;;;;;;;23.13;93.91;100966.97;5055852;28;20446;-67
2022/08/20 10:43:26;;;;;;;7.50;4.40;;;;;;;23.25;93.50;100963.97;5055636;28;20438;-68
2022/08/20 10:45:54;;;;;;;9.07;5.73;;;;;;;23.30;90.55;100963.63;5055392;28;20442;-67
2022/08/20 10:48:21;;;;;;;9.90;5.10;;;;;;;23.33;89.85;100960.09;5055231;28;20467;-67
2022/08/20 10:50:47;;;;;;;13.23;5.60;;;;;;;23.13;88.52;100961.44;5055590;28;20442;-66
2022/08/20 10:53:14;;;;;;;8.83;5.57;;;;;;;23.33;90.51;100957.34;5055238;28;20453;-67
2022/08/20 10:55:40;;;;;;;9.27;4.90;;;;;;;23.42;89.74;100957.81;5055652;28;20482;-68
2022/08/20 10:58:08;;;;;;;8.53;5.13;;;;;;;23.54;88.87;100958.72;5055203;28;20442;-66
2022/08/20 11:00:35;;;;;;;10.17;6.30;;;;;;;23.63;88.44;100959.19;5055397;28;20441;-67
2022/08/20 11:03:03;;;;;;;12.43;5.40;;;;;;;23.69;88.27;100956.91;5055640;28;20442;-66
2022/08/20 11:05:29;;;;;;;8.20;4.83;;;;;;;23.61;86.36;100959.59;5055382;28;20441;-67
2022/08/20 11:07:56;;;;;;;7.60;4.27;;;;;;;23.46;84.36;100965.34;5055261;28;20438;-67
2022/08/20 11:10:25;;;;;;;7.77;4.63;;;;;;;23.37;85.19;100966.47;5055409;28;20818;-67
2022/08/20 11:12:51;;;;;;;6.83;4.00;;;;;;;23.37;83.05;100973.94;5055361;28;20500;-67
2022/08/20 11:15:18;;;;;;;8.60;3.10;;;;;;;23.31;83.60;100969.94;5054830;28;20859;-66
2022/08/20 11:17:45;;;;;;;6.03;2.93;;;;;;;23.36;83.03;100973.16;5055169;28;20450;-67
2022/08/20 11:20:15;;;;;;;6.40;2.90;;;;;;;23.27;81.52;100969.88;5054722;28;20470;-68